createdAt,value
2023-04-18T00:00:24.043Z,15.50
2023-04-18T00:02:54.170Z,16.80
2023-04-18T00:05:22.274Z,16.58
2023-04-18T00:07:49.758Z,15.82
2023-04-18T00:10:17.298Z,16.90
2023-04-18T00:12:45.066Z,17.40
2023-04-18T00:15:12.779Z,16.88
2023-04-18T00:17:40.403Z,16.00
2023-04-18T00:20:10.539Z,17.27
2023-04-18T00:22:42.765Z,16.75
2023-04-18T00:25:11.232Z,16.05
2023-04-18T00:27:39.055Z,15.93
2023-04-18T00:30:07.213Z,14.52
2023-04-18T00:32:37.998Z,14.15
2023-04-18T00:35:06.014Z,14.20
2023-04-18T00:37:33.487Z,13.10
2023-04-18T00:40:00.829Z,13.05
2023-04-18T00:42:29.495Z,12.05
2023-04-18T00:44:57.597Z,11.65
2023-04-18T00:47:25.512Z,10.95
2023-04-18T00:49:53.083Z,9.77
2023-04-18T00:52:21.184Z,9.90
2023-04-18T00:54:48.608Z,10.13
2023-04-18T00:57:17.174Z,9.68
2023-04-18T00:59:44.548Z,9.90
2023-04-18T01:02:12.370Z,9.57
2023-04-18T01:04:43.298Z,9.82
2023-04-18T01:07:11.019Z,8.45
2023-04-18T01:09:38.536Z,9.02
2023-04-18T01:12:06.201Z,8.57
2023-04-18T01:14:33.543Z,8.35
2023-04-18T01:17:04.022Z,8.93
2023-04-18T01:19:32.976Z,9.00
2023-04-18T01:22:00.352Z,8.32
2023-04-18T01:24:29.812Z,8.85
2023-04-18T01:26:57.459Z,7.70
2023-04-18T01:29:25.266Z,8.13
2023-04-18T01:31:52.588Z,8.40
2023-04-18T01:34:19.886Z,8.95
2023-04-18T01:36:47.495Z,7.70
2023-04-18T01:39:15.050Z,8.07
2023-04-18T01:41:42.961Z,7.97
2023-04-18T01:44:10.579Z,7.82
2023-04-18T01:46:38.832Z,7.38
2023-04-18T01:49:06.747Z,8.65
2023-04-18T01:51:34.115Z,9.02
2023-04-18T01:54:01.545Z,8.52
2023-04-18T01:56:28.854Z,8.88
2023-04-18T01:58:58.722Z,9.27
2023-04-18T02:01:26.113Z,8.48
2023-04-18T02:03:54.432Z,8.20
2023-04-18T02:06:21.856Z,8.80
2023-04-18T02:08:49.238Z,8.40
2023-04-18T02:11:16.604Z,8.60
2023-04-18T02:13:44.010Z,8.02
2023-04-18T02:16:13.203Z,7.68
2023-04-18T02:18:41.514Z,8.27
2023-04-18T02:21:11.162Z,8.05
2023-04-18T02:23:38.597Z,7.50
2023-04-18T02:26:06.557Z,8.63
2023-04-18T02:28:34.215Z,7.90
2023-04-18T02:31:03.849Z,7.63
2023-04-18T02:33:31.149Z,7.55
2023-04-18T02:35:58.476Z,7.15
2023-04-18T02:38:25.836Z,7.68
2023-04-18T02:40:53.171Z,7.63
2023-04-18T02:43:21.433Z,6.95
2023-04-18T02:45:49.012Z,8.07
2023-04-18T02:48:17.893Z,7.53
2023-04-18T02:50:47.648Z,7.88
2023-04-18T02:53:17.355Z,7.78
2023-04-18T02:55:56.705Z,8.55
2023-04-18T02:58:31.291Z,7.47
2023-04-18T03:01:22.614Z,6.93
2023-04-18T03:04:13.039Z,7.25
2023-04-18T03:06:50.316Z,7.80
2023-04-18T03:09:20.824Z,7.50
2023-04-18T03:11:54.503Z,6.70
2023-04-18T03:14:26.122Z,7.05
2023-04-18T03:16:56.068Z,6.55
2023-04-18T03:19:37.915Z,7.40
2023-04-18T03:22:20.298Z,6.22
2023-04-18T03:25:09.142Z,6.00
2023-04-18T03:27:49.451Z,7.10
2023-04-18T03:30:29.726Z,6.28
2023-04-18T03:33:01.966Z,7.53
2023-04-18T03:38:02.842Z,7.20
2023-04-18T03:40:47.245Z,7.82
2023-04-18T03:43:28.984Z,7.10
2023-04-18T03:46:07.346Z,8.02
2023-04-18T03:48:37.450Z,8.55
2023-04-18T03:51:21.788Z,8.65
2023-04-18T03:53:58.435Z,9.10
2023-04-18T03:56:25.985Z,9.52
2023-04-18T03:59:03.093Z,9.07
2023-04-18T04:01:42.305Z,9.77
2023-04-18T04:04:11.994Z,9.20
2023-04-18T04:06:39.832Z,9.55
2023-04-18T04:09:08.606Z,9.73
2023-04-18T04:11:38.433Z,9.75
2023-04-18T04:14:07.814Z,9.88
2023-04-18T04:16:40.547Z,10.35
2023-04-18T04:19:10.731Z,10.50
2023-04-18T04:21:44.022Z,11.35
2023-04-18T04:24:14.779Z,11.63
2023-04-18T04:26:48.793Z,11.43
2023-04-18T04:31:52.879Z,11.77
2023-04-18T04:34:31.421Z,13.00
2023-04-18T04:37:03.271Z,12.32
2023-04-18T04:39:46.296Z,12.38
2023-04-18T04:42:33.377Z,12.30
2023-04-18T04:45:09.404Z,13.55
2023-04-18T04:47:39.786Z,12.15
2023-04-18T04:50:08.379Z,12.73
2023-04-18T04:52:35.845Z,12.15
2023-04-18T04:55:03.935Z,13.43
2023-04-18T04:57:31.275Z,12.02
2023-04-18T04:59:58.631Z,12.85
2023-04-18T05:02:27.837Z,12.55
2023-04-18T05:04:55.435Z,11.52
2023-04-18T05:07:22.840Z,12.95
2023-04-18T05:09:53.163Z,12.20
2023-04-18T05:12:20.542Z,11.98
2023-04-18T05:14:47.903Z,12.52
2023-04-18T05:17:15.365Z,12.65
2023-04-18T05:19:44.485Z,12.85
2023-04-18T05:22:11.894Z,12.32
2023-04-18T05:24:39.525Z,13.13
2023-04-18T05:27:06.906Z,12.55
2023-04-18T05:29:34.288Z,11.75
2023-04-18T05:32:02.163Z,13.77
2023-04-18T05:34:31.809Z,13.18
2023-04-18T05:36:59.218Z,14.00
2023-04-18T05:39:31.178Z,13.10
2023-04-18T05:41:58.541Z,14.15
2023-04-18T05:44:25.940Z,12.32
2023-04-18T05:46:55.204Z,12.88
2023-04-18T05:49:24.750Z,12.75
2023-04-18T05:51:52.970Z,12.60
2023-04-18T05:54:31.724Z,13.00
2023-04-18T05:56:59.653Z,13.32
2023-04-18T05:59:32.812Z,14.20
2023-04-18T06:02:02.286Z,12.52
2023-04-18T06:04:29.883Z,13.45
2023-04-18T06:07:01.025Z,13.45
2023-04-18T06:09:34.426Z,12.57
2023-04-18T06:12:03.854Z,12.57
2023-04-18T06:14:31.271Z,11.90
2023-04-18T06:17:04.424Z,11.77
2023-04-18T06:19:49.764Z,11.80
2023-04-18T06:22:19.077Z,11.20
2023-04-18T06:25:08.520Z,11.50
2023-04-18T06:27:49.695Z,11.80
2023-04-18T06:30:17.140Z,11.13
2023-04-18T06:32:47.727Z,11.07
2023-04-18T06:35:19.753Z,11.70
2023-04-18T06:37:57.573Z,10.50
2023-04-18T06:40:25.021Z,11.35
2023-04-18T06:42:58.405Z,9.63
2023-04-18T06:45:43.311Z,9.10
2023-04-18T06:48:10.989Z,9.20
2023-04-18T06:50:58.876Z,9.32
2023-04-18T06:53:40.193Z,8.68
2023-04-18T06:56:19.767Z,9.63
2023-04-18T06:58:47.480Z,9.75
2023-04-18T07:01:21.001Z,10.52
2023-04-18T07:03:51.214Z,9.75
2023-04-18T07:06:21.887Z,8.85
2023-04-18T07:08:55.175Z,9.68
2023-04-18T07:11:26.757Z,8.93
2023-04-18T07:13:54.227Z,9.90
2023-04-18T07:16:21.816Z,9.50
2023-04-18T07:18:51.808Z,9.95
2023-04-18T07:21:19.781Z,10.18
2023-04-18T07:23:47.166Z,9.45
2023-04-18T07:26:15.542Z,9.23
2023-04-18T07:28:42.892Z,10.55
2023-04-18T07:31:11.591Z,9.73
2023-04-18T07:33:41.350Z,10.60
2023-04-18T07:36:08.809Z,10.13
2023-04-18T07:38:38.356Z,9.85
2023-04-18T07:41:05.778Z,10.50
2023-04-18T07:43:39.185Z,10.18
2023-04-18T07:46:12.696Z,10.55
2023-04-18T07:48:56.641Z,10.40
2023-04-18T07:51:31.619Z,8.55
2023-04-18T07:54:04.149Z,8.70
2023-04-18T07:56:34.168Z,9.25
2023-04-18T07:59:01.847Z,8.73
2023-04-18T08:01:29.274Z,7.72
2023-04-18T08:03:57.883Z,8.10
2023-04-18T08:06:27.045Z,8.65
2023-04-18T08:09:01.348Z,7.53
2023-04-18T08:11:28.701Z,8.53
2023-04-18T08:13:56.035Z,8.30
2023-04-18T08:16:28.060Z,7.57
2023-04-18T08:18:55.434Z,9.47
2023-04-18T08:21:22.761Z,8.60
2023-04-18T08:23:50.186Z,8.23
2023-04-18T08:26:17.527Z,8.15
2023-04-18T08:28:46.447Z,8.82
2023-04-18T08:31:15.185Z,8.60
2023-04-18T08:33:42.751Z,9.10
2023-04-18T08:36:10.570Z,8.10
2023-04-18T08:38:37.841Z,9.27
2023-04-18T08:41:13.086Z,8.43
2023-04-18T08:43:43.832Z,8.02
2023-04-18T08:46:11.243Z,8.88
2023-04-18T08:48:41.219Z,8.20
2023-04-18T08:51:09.293Z,9.32
2023-04-18T08:53:37.792Z,8.10
2023-04-18T08:56:05.446Z,8.88
2023-04-18T08:58:34.260Z,9.43
2023-04-18T09:01:03.560Z,8.82
2023-04-18T09:03:41.389Z,8.55
2023-04-18T09:06:08.858Z,9.77
2023-04-18T09:08:42.511Z,9.27
2023-04-18T09:11:23.289Z,9.60
2023-04-18T09:13:53.392Z,9.38
2023-04-18T09:16:23.607Z,8.98
2023-04-18T09:19:11.077Z,9.23
2023-04-18T09:21:42.469Z,10.07
2023-04-18T09:24:24.886Z,10.00
2023-04-18T09:26:53.958Z,9.00
2023-04-18T09:29:30.100Z,9.85
2023-04-18T09:32:01.453Z,9.73
2023-04-18T09:34:35.704Z,9.05
2023-04-18T09:39:51.977Z,9.23
2023-04-18T09:42:26.717Z,10.07
2023-04-18T09:44:59.941Z,9.95
2023-04-18T09:47:28.226Z,9.80
2023-04-18T09:49:55.954Z,9.98
2023-04-18T09:52:26.008Z,9.38
2023-04-18T09:54:58.654Z,10.10
2023-04-18T09:57:30.624Z,9.43
2023-04-18T10:00:08.818Z,9.70
2023-04-18T10:03:04.811Z,10.05
2023-04-18T10:05:34.738Z,9.55
2023-04-18T10:08:04.380Z,9.50
2023-04-18T10:10:32.116Z,9.93
2023-04-18T10:13:01.004Z,9.82
2023-04-18T10:15:29.847Z,9.55
2023-04-18T10:18:24.697Z,8.77
2023-04-18T10:21:03.341Z,9.18
2023-04-18T10:23:37.826Z,9.68
2023-04-18T10:26:11.483Z,9.48
2023-04-18T10:28:58.876Z,9.20
2023-04-18T10:31:29.571Z,9.77
2023-04-18T10:34:05.388Z,9.57
2023-04-18T10:36:33.065Z,9.50
2023-04-18T10:39:05.821Z,9.65
2023-04-18T10:44:18.162Z,9.02
2023-04-18T10:46:48.302Z,9.50
2023-04-18T10:49:31.990Z,8.98
2023-04-18T10:52:01.801Z,9.55
2023-04-18T10:54:58.422Z,9.05
2023-04-18T10:57:38.781Z,8.20
2023-04-18T11:00:13.846Z,8.15
2023-04-18T11:02:48.214Z,8.68
2023-04-18T11:05:21.020Z,8.27
2023-04-18T11:07:49.071Z,8.90
2023-04-18T11:10:24.556Z,7.65
2023-04-18T11:12:52.564Z,8.55
2023-04-18T11:15:24.334Z,7.85
2023-04-18T11:18:05.007Z,7.88
2023-04-18T11:20:39.919Z,7.40
2023-04-18T11:23:17.171Z,9.32
2023-04-18T11:25:45.000Z,7.88
2023-04-18T11:28:13.646Z,7.80
2023-04-18T11:30:41.600Z,7.68
2023-04-18T11:33:12.649Z,7.18
2023-04-18T11:35:44.735Z,7.22
2023-04-18T11:38:13.554Z,6.55
2023-04-18T11:40:50.096Z,7.00
2023-04-18T11:43:25.011Z,5.88
2023-04-18T11:45:59.793Z,6.28
2023-04-18T11:48:45.195Z,6.70
2023-04-18T11:51:32.310Z,6.07
2023-04-18T11:53:59.215Z,6.65
2023-04-18T11:56:26.324Z,6.63
2023-04-18T11:58:53.437Z,5.93
2023-04-18T12:01:22.389Z,7.35
2023-04-18T12:04:06.606Z,9.30
2023-04-18T12:06:50.510Z,9.70
2023-04-18T12:09:17.886Z,9.23
2023-04-18T12:11:56.289Z,9.95
2023-04-18T12:14:23.249Z,9.40
2023-04-18T12:16:50.874Z,9.60
2023-04-18T12:19:20.555Z,9.10
2023-04-18T12:22:00.519Z,9.77
2023-04-18T12:24:29.032Z,9.07
2023-04-18T12:26:58.110Z,9.45
2023-04-18T12:29:27.426Z,10.13
2023-04-18T12:31:54.828Z,11.07
2023-04-18T12:34:21.901Z,10.15
2023-04-18T12:36:49.335Z,9.35
2023-04-18T12:39:16.422Z,9.70
2023-04-18T12:41:44.297Z,10.00
2023-04-18T12:44:11.583Z,10.18
2023-04-18T12:46:38.760Z,9.98
2023-04-18T12:49:05.904Z,9.65
2023-04-18T12:51:33.207Z,9.50
2023-04-18T12:54:00.657Z,10.13
2023-04-18T12:56:27.790Z,9.85
2023-04-18T12:58:54.757Z,8.93
2023-04-18T13:01:22.032Z,10.80
2023-04-18T13:04:10.864Z,10.77
2023-04-18T13:06:40.073Z,10.68
2023-04-18T13:09:07.476Z,10.38
2023-04-18T13:11:49.066Z,11.30
2023-04-18T13:14:36.463Z,11.02
2023-04-18T13:17:20.228Z,11.15
2023-04-18T13:20:00.109Z,11.30
2023-04-18T13:22:48.909Z,10.77
2023-04-18T13:25:29.273Z,10.63
2023-04-18T13:28:03.016Z,12.13
2023-04-18T13:30:35.774Z,11.50
2023-04-18T13:35:44.262Z,11.85
2023-04-18T13:39:02.793Z,11.63
2023-04-18T13:41:13.924Z,11.85
2023-04-18T13:43:55.636Z,10.88
2023-04-18T13:46:37.362Z,11.25
2023-04-18T13:49:04.576Z,11.88
2023-04-18T13:51:43.914Z,10.98
2023-04-18T13:54:16.034Z,10.43
2023-04-18T13:56:56.591Z,11.52
2023-04-18T13:59:39.703Z,11.40
2023-04-18T14:02:34.662Z,11.73
2023-04-18T14:05:04.950Z,11.75
2023-04-18T14:07:46.352Z,10.90
2023-04-18T14:10:26.240Z,11.20
2023-04-18T14:12:56.695Z,10.25
2023-04-18T14:15:38.029Z,9.60
2023-04-18T14:18:10.507Z,9.15
2023-04-18T14:20:38.971Z,10.07
2023-04-18T14:23:11.924Z,9.20
2023-04-18T14:28:35.647Z,9.70
2023-04-18T14:31:27.913Z,10.23
2023-04-18T14:34:05.242Z,10.70
2023-04-18T14:36:40.374Z,10.98
2023-04-18T14:39:25.328Z,10.55
2023-04-18T14:42:17.183Z,11.57
2023-04-18T14:45:20.958Z,9.85
2023-04-18T14:47:55.933Z,10.57
2023-04-18T14:50:27.913Z,10.68
2023-04-18T14:52:55.046Z,12.07
2023-04-18T14:55:29.721Z,10.35
2023-04-18T14:58:01.371Z,12.15
2023-04-18T15:00:38.343Z,13.07
2023-04-18T15:03:08.302Z,11.63
2023-04-18T15:05:50.693Z,10.38
2023-04-18T15:08:32.664Z,10.38
2023-04-18T15:11:18.903Z,11.93
2023-04-18T15:14:13.367Z,12.65
2023-04-18T15:17:07.631Z,12.37
2023-04-18T15:20:10.879Z,11.23
2023-04-18T15:25:18.681Z,13.65
2023-04-18T15:27:59.647Z,13.07
2023-04-18T15:30:35.605Z,11.98
2023-04-18T15:33:18.265Z,11.07
2023-04-18T15:35:53.955Z,12.20
2023-04-18T15:38:27.922Z,12.10
2023-04-18T15:40:59.047Z,11.95
2023-04-18T15:43:38.542Z,11.68
2023-04-18T15:46:05.651Z,11.45
2023-04-18T15:51:55.753Z,11.45
2023-04-18T15:54:26.212Z,11.07
2023-04-18T15:57:00.760Z,11.20
2023-04-18T15:59:37.183Z,11.13
2023-04-18T16:02:10.378Z,11.30
2023-04-18T16:04:51.547Z,12.40
2023-04-18T16:07:18.856Z,10.27
2023-04-18T16:10:08.583Z,11.07
2023-04-18T16:12:56.176Z,10.63
2023-04-18T16:15:27.294Z,10.43
2023-04-18T16:17:58.970Z,10.57
2023-04-18T16:20:38.069Z,10.82
2023-04-18T16:23:28.668Z,9.93
2023-04-18T16:26:03.356Z,11.52
2023-04-18T16:28:39.223Z,10.27
2023-04-18T16:31:10.160Z,10.57
2023-04-18T16:33:37.285Z,9.00
2023-04-18T16:36:05.104Z,10.05
2023-04-18T16:38:32.331Z,9.30
2023-04-18T16:41:01.515Z,9.82
2023-04-18T16:43:30.996Z,9.93
2023-04-18T16:45:59.002Z,9.25
2023-04-18T16:48:42.604Z,9.82
2023-04-18T16:51:17.976Z,9.15
2023-04-18T16:53:46.925Z,9.80
2023-04-18T16:56:24.348Z,10.23
2023-04-18T16:58:55.209Z,10.77
2023-04-18T17:01:33.329Z,9.68
2023-04-18T17:04:19.931Z,10.48
2023-04-18T17:07:10.266Z,8.70
2023-04-18T17:09:45.240Z,9.45
2023-04-18T17:12:22.815Z,9.00
2023-04-18T17:14:51.173Z,8.95
2023-04-18T17:17:28.573Z,8.98
2023-04-18T17:19:56.109Z,8.15
2023-04-18T17:22:23.339Z,9.45
2023-04-18T17:24:50.284Z,12.65
2023-04-18T17:27:19.853Z,8.77
2023-04-18T17:29:48.809Z,8.48
2023-04-18T17:32:16.178Z,8.77
2023-04-18T17:34:53.772Z,8.05
2023-04-18T17:37:24.244Z,8.75
2023-04-18T17:40:05.937Z,8.13
2023-04-18T17:42:44.428Z,8.55
2023-04-18T17:45:46.819Z,7.45
2023-04-18T17:48:16.356Z,9.20
2023-04-18T17:50:59.936Z,8.50
2023-04-18T17:53:27.363Z,9.25
2023-04-18T17:55:55.552Z,9.68
2023-04-18T17:58:25.503Z,9.18
2023-04-18T18:00:53.138Z,8.98
2023-04-18T18:03:21.040Z,10.25
2023-04-18T18:05:49.214Z,9.75
2023-04-18T18:08:17.245Z,9.65
2023-04-18T18:10:46.966Z,9.75
2023-04-18T18:13:15.263Z,10.38
2023-04-18T18:15:42.706Z,9.10
2023-04-18T18:18:11.077Z,9.65
2023-04-18T18:20:38.729Z,9.45
2023-04-18T18:23:06.842Z,10.32
2023-04-18T18:25:37.044Z,10.13
2023-04-18T18:28:04.615Z,8.85
2023-04-18T18:30:32.115Z,9.82
2023-04-18T18:32:59.808Z,9.82
2023-04-18T18:35:27.269Z,9.32
2023-04-18T18:37:54.790Z,8.85
2023-04-18T18:40:22.388Z,9.95
2023-04-18T18:42:51.453Z,8.98
2023-04-18T18:45:21.175Z,9.70
2023-04-18T18:47:49.023Z,10.13
2023-04-18T18:50:16.568Z,10.02
2023-04-18T18:52:43.696Z,9.50
2023-04-18T18:55:11.678Z,10.00
2023-04-18T18:57:38.808Z,10.93
2023-04-18T19:00:12.276Z,10.23
2023-04-18T19:02:42.554Z,9.57
2023-04-18T19:05:13.458Z,10.13
2023-04-18T19:07:43.671Z,9.52
2023-04-18T19:10:11.510Z,9.88
2023-04-18T19:12:39.113Z,10.13
2023-04-18T19:15:06.777Z,10.15
2023-04-18T19:17:34.323Z,10.50
2023-04-18T19:20:01.939Z,10.43
2023-04-18T19:22:29.790Z,11.02
2023-04-18T19:24:58.535Z,10.15
2023-04-18T19:27:26.202Z,11.00
2023-04-18T19:29:53.665Z,9.65
2023-04-18T19:32:21.852Z,9.98
2023-04-18T19:34:51.037Z,9.95
2023-04-18T19:37:22.720Z,9.88
2023-04-18T19:39:50.199Z,10.73
2023-04-18T19:42:17.708Z,10.70
2023-04-18T19:44:45.196Z,10.80
2023-04-18T19:47:12.811Z,10.52
2023-04-18T19:49:40.316Z,10.43
2023-04-18T19:52:09.843Z,9.48
2023-04-18T19:54:37.374Z,10.05
2023-04-18T19:57:06.403Z,9.52
2023-04-18T19:59:33.949Z,8.52
2023-04-18T20:02:03.474Z,9.15
2023-04-18T20:04:38.299Z,9.95
2023-04-18T20:07:11.481Z,9.00
2023-04-18T20:10:15.072Z,10.80
2023-04-18T20:12:39.069Z,9.07
2023-04-18T20:15:06.920Z,8.98
2023-04-18T20:17:48.812Z,8.93
2023-04-18T20:20:24.577Z,9.15
2023-04-18T20:25:22.276Z,9.38
2023-04-18T20:27:54.984Z,9.07
2023-04-18T20:30:34.447Z,9.68
2023-04-18T20:33:16.988Z,8.85
2023-04-18T20:35:54.924Z,9.63
2023-04-18T20:38:26.067Z,8.73
2023-04-18T20:40:54.644Z,8.65
2023-04-18T20:43:25.068Z,8.73
2023-04-18T20:46:11.340Z,8.30
2023-04-18T20:48:53.304Z,9.13
2023-04-18T20:51:34.972Z,8.75
2023-04-18T20:54:16.923Z,8.55
2023-04-18T20:56:54.667Z,8.73
2023-04-18T20:59:28.929Z,8.40
2023-04-18T21:02:29.524Z,8.23
2023-04-18T21:05:09.948Z,7.95
2023-04-18T21:07:41.343Z,9.65
2023-04-18T21:10:20.483Z,8.05
2023-04-18T21:13:00.597Z,7.65
2023-04-18T21:15:46.427Z,8.63
2023-04-18T21:18:14.011Z,8.23
2023-04-18T21:20:54.059Z,9.30
2023-04-18T21:23:23.977Z,8.32
2023-04-18T21:27:06.488Z,7.70
2023-04-18T21:29:11.121Z,8.52
2023-04-18T21:31:56.486Z,8.05
2023-04-18T21:34:32.655Z,8.30
2023-04-18T21:37:01.575Z,8.43
2023-04-18T21:39:39.366Z,8.85
2023-04-18T21:42:06.859Z,8.65
2023-04-18T21:44:53.006Z,8.25
2023-04-18T21:47:28.290Z,8.90
2023-04-18T21:50:02.498Z,8.05
2023-04-18T21:52:33.492Z,8.45
2023-04-18T21:55:10.876Z,8.07
2023-04-18T21:57:51.055Z,8.48
2023-04-18T22:00:20.702Z,8.63
2023-04-18T22:02:57.839Z,8.88
2023-04-18T22:05:37.106Z,9.15
2023-04-18T22:08:04.849Z,8.63
2023-04-18T22:10:36.577Z,9.43
2023-04-18T22:13:13.794Z,7.03
2023-04-18T22:15:57.227Z,8.10
2023-04-18T22:18:40.633Z,8.23
2023-04-18T22:21:11.649Z,8.30
2023-04-18T22:23:49.100Z,7.97
2023-04-18T22:26:31.560Z,8.63
2023-04-18T22:29:28.991Z,7.80
2023-04-18T22:31:54.734Z,7.55
2023-04-18T22:34:24.467Z,8.45
2023-04-18T22:37:01.424Z,6.88
2023-04-18T22:39:36.201Z,8.38
2023-04-18T22:42:14.758Z,7.90
2023-04-18T22:44:44.110Z,7.85
2023-04-18T22:47:16.336Z,7.68
2023-04-18T22:49:58.600Z,7.55
2023-04-18T22:52:28.635Z,7.28
2023-04-18T22:54:58.411Z,6.93
2023-04-18T22:57:29.229Z,6.88
2023-04-18T23:00:00.157Z,7.10
2023-04-18T23:02:50.557Z,6.82
2023-04-18T23:05:25.688Z,7.20
2023-04-18T23:08:00.520Z,6.85
2023-04-18T23:10:32.387Z,7.03
2023-04-18T23:13:06.437Z,7.32
2023-04-18T23:15:36.948Z,7.05
2023-04-18T23:18:05.551Z,6.93
2023-04-18T23:20:43.282Z,7.05
2023-04-18T23:23:12.946Z,6.85
2023-04-18T23:25:47.059Z,6.95
2023-04-18T23:28:16.546Z,6.80
2023-04-18T23:33:41.988Z,6.13
2023-04-18T23:36:15.058Z,6.57
2023-04-18T23:38:52.498Z,7.15
2023-04-18T23:41:33.899Z,7.15
2023-04-18T23:44:07.747Z,6.68
2023-04-18T23:46:49.221Z,6.07
2023-04-18T23:49:18.052Z,6.57
2023-04-18T23:51:52.797Z,7.35
2023-04-18T23:54:36.255Z,7.05
2023-04-18T23:57:08.227Z,7.55
2023-04-18T23:59:40.938Z,7.40
